sensor_id;sensor_type;location;lat;lon;timestamp;P1;durP1;ratioP1;P2;durP2;ratioP2
27505;SDS011;14939;43.596;1.320;2024-03-08T00:00:16;9.45;;;1.98;;
27505;SDS011;14939;43.596;1.320;2024-03-08T00:02:45;7.72;;;1.80;;
27505;SDS011;14939;43.596;1.320;2024-03-08T00:05:12;6.43;;;1.88;;
27505;SDS011;14939;43.596;1.320;2024-03-08T00:07:38;7.93;;;2.20;;
27505;SDS011;14939;43.596;1.320;2024-03-08T00:10:08;8.77;;;1.65;;
27505;SDS011;14939;43.596;1.320;2024-03-08T00:12:36;9.45;;;2.00;;
27505;SDS011;14939;43.596;1.320;2024-03-08T00:15:03;8.65;;;1.75;;
27505;SDS011;14939;43.596;1.320;2024-03-08T00:17:29;8.10;;;1.80;;
27505;SDS011;14939;43.596;1.320;2024-03-08T00:19:54;7.30;;;1.92;;
27505;SDS011;14939;43.596;1.320;2024-03-08T00:22:20;12.57;;;1.88;;
27505;SDS011;14939;43.596;1.320;2024-03-08T00:24:47;8.18;;;1.90;;
27505;SDS011;14939;43.596;1.320;2024-03-08T00:27:15;7.65;;;1.73;;
27505;SDS011;14939;43.596;1.320;2024-03-08T00:29:41;8.27;;;1.90;;
27505;SDS011;14939;43.596;1.320;2024-03-08T00:32:06;11.55;;;1.85;;
27505;SDS011;14939;43.596;1.320;2024-03-08T00:34:34;11.93;;;2.10;;
27505;SDS011;14939;43.596;1.320;2024-03-08T00:37:02;11.02;;;1.80;;
27505;SDS011;14939;43.596;1.320;2024-03-08T00:39:28;5.55;;;1.70;;
27505;SDS011;14939;43.596;1.320;2024-03-08T00:41:54;12.20;;;2.35;;
27505;SDS011;14939;43.596;1.320;2024-03-08T00:44:19;8.18;;;1.85;;
27505;SDS011;14939;43.596;1.320;2024-03-08T00:46:45;9.68;;;2.00;;
27505;SDS011;14939;43.596;1.320;2024-03-08T00:49:10;9.63;;;1.75;;
27505;SDS011;14939;43.596;1.320;2024-03-08T00:51:37;11.50;;;1.55;;
27505;SDS011;14939;43.596;1.320;2024-03-08T00:54:03;9.77;;;1.90;;
27505;SDS011;14939;43.596;1.320;2024-03-08T00:56:29;7.40;;;1.73;;
27505;SDS011;14939;43.596;1.320;2024-03-08T00:58:54;10.93;;;2.08;;
27505;SDS011;14939;43.596;1.320;2024-03-08T01:01:20;6.60;;;1.70;;
27505;SDS011;14939;43.596;1.320;2024-03-08T01:03:46;12.35;;;2.25;;
27505;SDS011;14939;43.596;1.320;2024-03-08T01:06:11;7.28;;;1.70;;
27505;SDS011;14939;43.596;1.320;2024-03-08T01:08:37;6.40;;;1.67;;
27505;SDS011;14939;43.596;1.320;2024-03-08T01:11:07;7.28;;;1.95;;
27505;SDS011;14939;43.596;1.320;2024-03-08T01:13:34;4.82;;;1.67;;
27505;SDS011;14939;43.596;1.320;2024-03-08T01:15:59;7.85;;;1.80;;
27505;SDS011;14939;43.596;1.320;2024-03-08T01:18:25;7.93;;;1.80;;
27505;SDS011;14939;43.596;1.320;2024-03-08T01:20:51;9.32;;;2.10;;
27505;SDS011;14939;43.596;1.320;2024-03-08T01:23:16;10.88;;;2.03;;
27505;SDS011;14939;43.596;1.320;2024-03-08T01:25:42;7.18;;;1.95;;
27505;SDS011;14939;43.596;1.320;2024-03-08T01:28:09;9.63;;;2.00;;
27505;SDS011;14939;43.596;1.320;2024-03-08T01:30:34;7.82;;;1.77;;
27505;SDS011;14939;43.596;1.320;2024-03-08T01:33:02;7.75;;;1.65;;
27505;SDS011;14939;43.596;1.320;2024-03-08T01:35:28;6.72;;;1.85;;
27505;SDS011;14939;43.596;1.320;2024-03-08T01:37:53;9.05;;;1.55;;
27505;SDS011;14939;43.596;1.320;2024-03-08T01:40:20;8.85;;;2.20;;
27505;SDS011;14939;43.596;1.320;2024-03-08T01:42:46;8.43;;;1.58;;
27505;SDS011;14939;43.596;1.320;2024-03-08T01:45:13;7.07;;;1.75;;
27505;SDS011;14939;43.596;1.320;2024-03-08T01:47:38;7.35;;;1.92;;
27505;SDS011;14939;43.596;1.320;2024-03-08T01:50:04;5.90;;;1.58;;
27505;SDS011;14939;43.596;1.320;2024-03-08T01:52:31;11.32;;;2.35;;
27505;SDS011;14939;43.596;1.320;2024-03-08T01:55:00;6.95;;;1.60;;
27505;SDS011;14939;43.596;1.320;2024-03-08T01:57:29;6.97;;;1.58;;
27505;SDS011;14939;43.596;1.320;2024-03-08T01:59:56;5.78;;;1.60;;
27505;SDS011;14939;43.596;1.320;2024-03-08T02:02:22;8.30;;;2.00;;
27505;SDS011;14939;43.596;1.320;2024-03-08T02:04:48;9.02;;;1.60;;
27505;SDS011;14939;43.596;1.320;2024-03-08T02:07:17;7.45;;;1.60;;
27505;SDS011;14939;43.596;1.320;2024-03-08T02:09:43;9.18;;;1.55;;
27505;SDS011;14939;43.596;1.320;2024-03-08T02:12:09;10.50;;;1.70;;
27505;SDS011;14939;43.596;1.320;2024-03-08T02:14:35;10.63;;;1.90;;
27505;SDS011;14939;43.596;1.320;2024-03-08T02:17:01;10.35;;;1.70;;
27505;SDS011;14939;43.596;1.320;2024-03-08T02:19:27;4.22;;;1.50;;
27505;SDS011;14939;43.596;1.320;2024-03-08T02:21:53;9.27;;;1.85;;
27505;SDS011;14939;43.596;1.320;2024-03-08T02:24:19;6.43;;;1.80;;
27505;SDS011;14939;43.596;1.320;2024-03-08T02:26:44;4.68;;;1.50;;
27505;SDS011;14939;43.596;1.320;2024-03-08T02:29:10;8.95;;;1.63;;
27505;SDS011;14939;43.596;1.320;2024-03-08T02:31:36;9.07;;;1.63;;
27505;SDS011;14939;43.596;1.320;2024-03-08T02:34:01;8.43;;;1.90;;
27505;SDS011;14939;43.596;1.320;2024-03-08T02:36:27;6.82;;;1.88;;
27505;SDS011;14939;43.596;1.320;2024-03-08T02:38:52;6.43;;;1.70;;
27505;SDS011;14939;43.596;1.320;2024-03-08T02:41:20;6.03;;;1.70;;
27505;SDS011;14939;43.596;1.320;2024-03-08T02:43:46;8.23;;;1.83;;
27505;SDS011;14939;43.596;1.320;2024-03-08T02:46:11;8.10;;;1.38;;
27505;SDS011;14939;43.596;1.320;2024-03-08T02:48:37;14.90;;;1.65;;
27505;SDS011;14939;43.596;1.320;2024-03-08T02:51:04;8.43;;;2.00;;
27505;SDS011;14939;43.596;1.320;2024-03-08T02:53:31;8.45;;;1.67;;
27505;SDS011;14939;43.596;1.320;2024-03-08T02:55:57;6.88;;;1.25;;
27505;SDS011;14939;43.596;1.320;2024-03-08T02:58:22;6.53;;;1.40;;
27505;SDS011;14939;43.596;1.320;2024-03-08T03:00:48;6.18;;;1.25;;
27505;SDS011;14939;43.596;1.320;2024-03-08T03:03:14;5.15;;;1.20;;
27505;SDS011;14939;43.596;1.320;2024-03-08T03:05:40;6.95;;;1.20;;
27505;SDS011;14939;43.596;1.320;2024-03-08T03:08:09;5.93;;;1.30;;
27505;SDS011;14939;43.596;1.320;2024-03-08T03:10:36;9.05;;;1.50;;
27505;SDS011;14939;43.596;1.320;2024-03-08T03:13:01;5.90;;;1.60;;
27505;SDS011;14939;43.596;1.320;2024-03-08T03:15:29;7.32;;;1.67;;
27505;SDS011;14939;43.596;1.320;2024-03-08T03:17:55;9.38;;;1.45;;
27505;SDS011;14939;43.596;1.320;2024-03-08T03:20:20;4.97;;;1.45;;
27505;SDS011;14939;43.596;1.320;2024-03-08T03:22:51;7.68;;;1.15;;
27505;SDS011;14939;43.596;1.320;2024-03-08T03:25:20;8.18;;;2.05;;
27505;SDS011;14939;43.596;1.320;2024-03-08T03:27:50;4.75;;;1.30;;
27505;SDS011;14939;43.596;1.320;2024-03-08T03:30:16;6.60;;;1.33;;
27505;SDS011;14939;43.596;1.320;2024-03-08T03:32:48;6.90;;;1.40;;
27505;SDS011;14939;43.596;1.320;2024-03-08T03:35:15;4.63;;;1.40;;
27505;SDS011;14939;43.596;1.320;2024-03-08T03:37:42;6.78;;;1.25;;
27505;SDS011;14939;43.596;1.320;2024-03-08T03:40:10;8.00;;;1.30;;
27505;SDS011;14939;43.596;1.320;2024-03-08T03:42:37;6.55;;;1.50;;
27505;SDS011;14939;43.596;1.320;2024-03-08T03:45:05;7.07;;;1.40;;
27505;SDS011;14939;43.596;1.320;2024-03-08T03:47:31;5.75;;;1.30;;
27505;SDS011;14939;43.596;1.320;2024-03-08T03:49:56;3.45;;;1.38;;
27505;SDS011;14939;43.596;1.320;2024-03-08T03:52:26;5.65;;;1.33;;
27505;SDS011;14939;43.596;1.320;2024-03-08T03:54:52;7.53;;;1.60;;
27505;SDS011;14939;43.596;1.320;2024-03-08T03:57:18;5.13;;;1.30;;
27505;SDS011;14939;43.596;1.320;2024-03-08T03:59:45;8.07;;;1.10;;
27505;SDS011;14939;43.596;1.320;2024-03-08T04:02:12;6.32;;;1.10;;
27505;SDS011;14939;43.596;1.320;2024-03-08T04:04:38;9.23;;;1.30;;
27505;SDS011;14939;43.596;1.320;2024-03-08T04:07:04;6.05;;;1.20;;
27505;SDS011;14939;43.596;1.320;2024-03-08T04:09:30;6.57;;;1.10;;
27505;SDS011;14939;43.596;1.320;2024-03-08T04:11:55;8.23;;;1.52;;
27505;SDS011;14939;43.596;1.320;2024-03-08T04:14:21;6.97;;;1.40;;
27505;SDS011;14939;43.596;1.320;2024-03-08T04:16:48;6.47;;;1.30;;
27505;SDS011;14939;43.596;1.320;2024-03-08T04:19:13;7.65;;;1.48;;
27505;SDS011;14939;43.596;1.320;2024-03-08T04:21:39;6.30;;;1.25;;
27505;SDS011;14939;43.596;1.320;2024-03-08T04:24:05;5.68;;;1.33;;
27505;SDS011;14939;43.596;1.320;2024-03-08T04:26:31;7.68;;;1.20;;
27505;SDS011;14939;43.596;1.320;2024-03-08T04:28:56;6.10;;;1.33;;
27505;SDS011;14939;43.596;1.320;2024-03-08T04:31:22;7.18;;;1.23;;
27505;SDS011;14939;43.596;1.320;2024-03-08T04:33:48;6.22;;;1.33;;
27505;SDS011;14939;43.596;1.320;2024-03-08T04:36:13;6.63;;;1.25;;
27505;SDS011;14939;43.596;1.320;2024-03-08T04:38:42;6.18;;;1.38;;
27505;SDS011;14939;43.596;1.320;2024-03-08T04:41:07;9.32;;;1.42;;
27505;SDS011;14939;43.596;1.320;2024-03-08T04:43:34;5.30;;;1.45;;
27505;SDS011;14939;43.596;1.320;2024-03-08T04:46:00;5.82;;;1.10;;
27505;SDS011;14939;43.596;1.320;2024-03-08T04:48:25;5.25;;;1.40;;
27505;SDS011;14939;43.596;1.320;2024-03-08T04:50:54;5.38;;;1.08;;
27505;SDS011;14939;43.596;1.320;2024-03-08T04:53:20;6.35;;;1.10;;
27505;SDS011;14939;43.596;1.320;2024-03-08T04:55:46;9.85;;;1.30;;
27505;SDS011;14939;43.596;1.320;2024-03-08T04:58:12;7.25;;;1.45;;
27505;SDS011;14939;43.596;1.320;2024-03-08T05:00:37;5.25;;;1.42;;
27505;SDS011;14939;43.596;1.320;2024-03-08T05:03:03;8.02;;;1.42;;
27505;SDS011;14939;43.596;1.320;2024-03-08T05:05:29;8.20;;;1.70;;
27505;SDS011;14939;43.596;1.320;2024-03-08T05:07:56;8.65;;;1.20;;
27505;SDS011;14939;43.596;1.320;2024-03-08T05:10:21;6.55;;;1.27;;
27505;SDS011;14939;43.596;1.320;2024-03-08T05:12:47;9.38;;;1.83;;
27505;SDS011;14939;43.596;1.320;2024-03-08T05:15:13;11.05;;;1.45;;
27505;SDS011;14939;43.596;1.320;2024-03-08T05:17:39;8.38;;;1.42;;
27505;SDS011;14939;43.596;1.320;2024-03-08T05:20:05;7.80;;;1.40;;
27505;SDS011;14939;43.596;1.320;2024-03-08T05:22:37;7.78;;;1.92;;
27505;SDS011;14939;43.596;1.320;2024-03-08T05:25:03;15.07;;;2.80;;
27505;SDS011;14939;43.596;1.320;2024-03-08T05:27:29;8.10;;;1.90;;
27505;SDS011;14939;43.596;1.320;2024-03-08T05:29:54;7.53;;;2.13;;
27505;SDS011;14939;43.596;1.320;2024-03-08T05:32:20;10.23;;;1.75;;
27505;SDS011;14939;43.596;1.320;2024-03-08T05:34:45;5.93;;;1.17;;
27505;SDS011;14939;43.596;1.320;2024-03-08T05:37:12;7.25;;;1.60;;
27505;SDS011;14939;43.596;1.320;2024-03-08T05:39:37;6.65;;;1.65;;
27505;SDS011;14939;43.596;1.320;2024-03-08T05:42:03;8.55;;;1.40;;
27505;SDS011;14939;43.596;1.320;2024-03-08T05:44:29;10.85;;;1.60;;
27505;SDS011;14939;43.596;1.320;2024-03-08T05:46:55;10.20;;;1.48;;
27505;SDS011;14939;43.596;1.320;2024-03-08T05:49:21;10.27;;;2.08;;
27505;SDS011;14939;43.596;1.320;2024-03-08T05:51:47;11.55;;;1.90;;
27505;SDS011;14939;43.596;1.320;2024-03-08T05:54:13;8.45;;;1.55;;
27505;SDS011;14939;43.596;1.320;2024-03-08T05:56:39;6.57;;;1.42;;
27505;SDS011;14939;43.596;1.320;2024-03-08T05:59:08;9.60;;;1.38;;
27505;SDS011;14939;43.596;1.320;2024-03-08T06:01:35;6.97;;;1.40;;
27505;SDS011;14939;43.596;1.320;2024-03-08T06:04:01;11.27;;;1.85;;
27505;SDS011;14939;43.596;1.320;2024-03-08T06:06:28;9.30;;;1.70;;
27505;SDS011;14939;43.596;1.320;2024-03-08T06:08:54;9.35;;;1.90;;
27505;SDS011;14939;43.596;1.320;2024-03-08T06:11:24;12.95;;;2.05;;
27505;SDS011;14939;43.596;1.320;2024-03-08T06:13:55;8.52;;;1.52;;
27505;SDS011;14939;43.596;1.320;2024-03-08T06:16:25;15.40;;;1.77;;
27505;SDS011;14939;43.596;1.320;2024-03-08T06:18:55;10.32;;;1.90;;
27505;SDS011;14939;43.596;1.320;2024-03-08T06:21:23;10.02;;;1.60;;
27505;SDS011;14939;43.596;1.320;2024-03-08T06:23:53;10.50;;;1.75;;
27505;SDS011;14939;43.596;1.320;2024-03-08T06:26:20;12.48;;;2.22;;
27505;SDS011;14939;43.596;1.320;2024-03-08T06:28:47;9.88;;;1.95;;
27505;SDS011;14939;43.596;1.320;2024-03-08T06:31:13;14.93;;;2.08;;
27505;SDS011;14939;43.596;1.320;2024-03-08T06:33:39;14.52;;;2.08;;
27505;SDS011;14939;43.596;1.320;2024-03-08T06:36:05;14.95;;;2.13;;
27505;SDS011;14939;43.596;1.320;2024-03-08T06:38:31;15.18;;;2.30;;
27505;SDS011;14939;43.596;1.320;2024-03-08T06:40:56;10.82;;;1.70;;
27505;SDS011;14939;43.596;1.320;2024-03-08T06:43:22;11.77;;;1.92;;
27505;SDS011;14939;43.596;1.320;2024-03-08T06:45:50;8.80;;;1.50;;
27505;SDS011;14939;43.596;1.320;2024-03-08T06:48:16;10.27;;;1.77;;
27505;SDS011;14939;43.596;1.320;2024-03-08T06:50:42;11.07;;;1.70;;
27505;SDS011;14939;43.596;1.320;2024-03-08T06:53:09;11.55;;;2.15;;
27505;SDS011;14939;43.596;1.320;2024-03-08T06:55:35;11.23;;;1.92;;
27505;SDS011;14939;43.596;1.320;2024-03-08T06:58:01;12.52;;;1.88;;
27505;SDS011;14939;43.596;1.320;2024-03-08T07:00:27;10.00;;;1.35;;
27505;SDS011;14939;43.596;1.320;2024-03-08T07:02:54;7.13;;;1.30;;
27505;SDS011;14939;43.596;1.320;2024-03-08T07:05:19;7.18;;;1.45;;
27505;SDS011;14939;43.596;1.320;2024-03-08T07:07:45;8.82;;;1.48;;
27505;SDS011;14939;43.596;1.320;2024-03-08T07:10:14;8.93;;;2.13;;
27505;SDS011;14939;43.596;1.320;2024-03-08T07:12:40;8.18;;;1.52;;
27505;SDS011;14939;43.596;1.320;2024-03-08T07:15:07;9.40;;;1.80;;
27505;SDS011;14939;43.596;1.320;2024-03-08T07:17:38;11.43;;;1.77;;
27505;SDS011;14939;43.596;1.320;2024-03-08T07:20:04;8.55;;;2.33;;
27505;SDS011;14939;43.596;1.320;2024-03-08T07:22:35;4.60;;;1.60;;
27505;SDS011;14939;43.596;1.320;2024-03-08T07:25:02;9.88;;;2.05;;
27505;SDS011;14939;43.596;1.320;2024-03-08T07:27:53;6.00;;;1.48;;
27505;SDS011;14939;43.596;1.320;2024-03-08T07:30:20;8.43;;;1.73;;
27505;SDS011;14939;43.596;1.320;2024-03-08T07:33:05;6.40;;;1.35;;
27505;SDS011;14939;43.596;1.320;2024-03-08T07:35:32;8.48;;;2.40;;
27505;SDS011;14939;43.596;1.320;2024-03-08T07:38:01;6.72;;;1.67;;
27505;SDS011;14939;43.596;1.320;2024-03-08T07:40:30;6.57;;;1.30;;
27505;SDS011;14939;43.596;1.320;2024-03-08T07:43:09;5.80;;;1.23;;
27505;SDS011;14939;43.596;1.320;2024-03-08T07:45:36;8.02;;;1.48;;
27505;SDS011;14939;43.596;1.320;2024-03-08T07:48:02;10.43;;;1.40;;
27505;SDS011;14939;43.596;1.320;2024-03-08T07:50:28;5.05;;;1.30;;
27505;SDS011;14939;43.596;1.320;2024-03-08T07:52:54;7.25;;;1.75;;
27505;SDS011;14939;43.596;1.320;2024-03-08T07:55:20;8.55;;;2.22;;
27505;SDS011;14939;43.596;1.320;2024-03-08T07:57:49;6.60;;;1.65;;
27505;SDS011;14939;43.596;1.320;2024-03-08T08:00:14;11.25;;;1.92;;
27505;SDS011;14939;43.596;1.320;2024-03-08T08:02:43;6.97;;;1.40;;
27505;SDS011;14939;43.596;1.320;2024-03-08T08:05:10;8.25;;;1.27;;
27505;SDS011;14939;43.596;1.320;2024-03-08T08:07:36;10.32;;;2.33;;
27505;SDS011;14939;43.596;1.320;2024-03-08T08:10:02;8.20;;;1.77;;
27505;SDS011;14939;43.596;1.320;2024-03-08T08:12:27;10.88;;;2.53;;
27505;SDS011;14939;43.596;1.320;2024-03-08T08:14:54;9.52;;;2.10;;
27505;SDS011;14939;43.596;1.320;2024-03-08T08:17:19;9.57;;;2.00;;
27505;SDS011;14939;43.596;1.320;2024-03-08T08:19:45;9.15;;;1.95;;
27505;SDS011;14939;43.596;1.320;2024-03-08T08:22:11;8.82;;;2.03;;
27505;SDS011;14939;43.596;1.320;2024-03-08T08:24:36;10.35;;;2.25;;
27505;SDS011;14939;43.596;1.320;2024-03-08T08:27:03;10.00;;;2.20;;
27505;SDS011;14939;43.596;1.320;2024-03-08T08:29:29;9.68;;;2.10;;
27505;SDS011;14939;43.596;1.320;2024-03-08T08:31:57;10.27;;;2.28;;
27505;SDS011;14939;43.596;1.320;2024-03-08T08:34:24;7.45;;;2.08;;
27505;SDS011;14939;43.596;1.320;2024-03-08T08:36:51;11.60;;;2.40;;
27505;SDS011;14939;43.596;1.320;2024-03-08T08:39:18;13.35;;;2.30;;
27505;SDS011;14939;43.596;1.320;2024-03-08T08:41:43;4.60;;;1.95;;
27505;SDS011;14939;43.596;1.320;2024-03-08T08:44:09;4.65;;;1.80;;
27505;SDS011;14939;43.596;1.320;2024-03-08T08:46:37;5.50;;;1.77;;
27505;SDS011;14939;43.596;1.320;2024-03-08T08:49:03;2.92;;;1.20;;
27505;SDS011;14939;43.596;1.320;2024-03-08T08:51:30;5.60;;;1.75;;
27505;SDS011;14939;43.596;1.320;2024-03-08T08:53:58;6.22;;;2.03;;
27505;SDS011;14939;43.596;1.320;2024-03-08T08:56:24;6.97;;;1.98;;
27505;SDS011;14939;43.596;1.320;2024-03-08T08:58:51;10.88;;;2.25;;
27505;SDS011;14939;43.596;1.320;2024-03-08T09:01:18;11.60;;;2.53;;
27505;SDS011;14939;43.596;1.320;2024-03-08T09:03:44;5.85;;;2.10;;
27505;SDS011;14939;43.596;1.320;2024-03-08T09:06:12;5.65;;;2.55;;
27505;SDS011;14939;43.596;1.320;2024-03-08T09:08:41;8.82;;;2.90;;
27505;SDS011;14939;43.596;1.320;2024-03-08T09:11:07;7.63;;;3.00;;
27505;SDS011;14939;43.596;1.320;2024-03-08T09:13:33;11.27;;;2.50;;
27505;SDS011;14939;43.596;1.320;2024-03-08T09:15:59;6.63;;;2.60;;
27505;SDS011;14939;43.596;1.320;2024-03-08T09:18:25;5.25;;;2.50;;
27505;SDS011;14939;43.596;1.320;2024-03-08T09:20:51;9.77;;;3.10;;
27505;SDS011;14939;43.596;1.320;2024-03-08T09:23:21;10.63;;;3.20;;
27505;SDS011;14939;43.596;1.320;2024-03-08T09:25:47;11.43;;;3.08;;
27505;SDS011;14939;43.596;1.320;2024-03-08T09:28:12;7.30;;;3.70;;
27505;SDS011;14939;43.596;1.320;2024-03-08T09:30:39;10.48;;;3.50;;
27505;SDS011;14939;43.596;1.320;2024-03-08T09:33:05;11.40;;;5.68;;
27505;SDS011;14939;43.596;1.320;2024-03-08T09:35:31;15.50;;;7.72;;
27505;SDS011;14939;43.596;1.320;2024-03-08T09:37:57;15.77;;;8.77;;
27505;SDS011;14939;43.596;1.320;2024-03-08T09:40:22;10.13;;;4.15;;
27505;SDS011;14939;43.596;1.320;2024-03-08T09:42:50;9.90;;;3.90;;
27505;SDS011;14939;43.596;1.320;2024-03-08T09:45:17;12.05;;;4.50;;
27505;SDS011;14939;43.596;1.320;2024-03-08T09:47:47;10.77;;;5.03;;
27505;SDS011;14939;43.596;1.320;2024-03-08T09:50:14;8.70;;;3.85;;
27505;SDS011;14939;43.596;1.320;2024-03-08T09:52:43;10.13;;;4.30;;
27505;SDS011;14939;43.596;1.320;2024-03-08T09:55:11;5.00;;;2.90;;
27505;SDS011;14939;43.596;1.320;2024-03-08T09:57:37;6.60;;;3.03;;
27505;SDS011;14939;43.596;1.320;2024-03-08T10:00:03;7.13;;;2.85;;
27505;SDS011;14939;43.596;1.320;2024-03-08T10:02:46;4.88;;;2.35;;
27505;SDS011;14939;43.596;1.320;2024-03-08T10:05:12;4.97;;;3.20;;
27505;SDS011;14939;43.596;1.320;2024-03-08T10:07:39;3.00;;;2.42;;
27505;SDS011;14939;43.596;1.320;2024-03-08T10:10:04;4.47;;;2.10;;
27505;SDS011;14939;43.596;1.320;2024-03-08T10:12:30;3.85;;;1.90;;
27505;SDS011;14939;43.596;1.320;2024-03-08T10:14:58;3.20;;;1.70;;
27505;SDS011;14939;43.596;1.320;2024-03-08T10:17:24;4.68;;;1.85;;
27505;SDS011;14939;43.596;1.320;2024-03-08T10:19:50;5.07;;;1.80;;
27505;SDS011;14939;43.596;1.320;2024-03-08T10:22:19;5.75;;;2.25;;
27505;SDS011;14939;43.596;1.320;2024-03-08T10:24:46;4.90;;;2.17;;
27505;SDS011;14939;43.596;1.320;2024-03-08T10:27:12;4.97;;;2.00;;
27505;SDS011;14939;43.596;1.320;2024-03-08T10:29:37;3.40;;;2.10;;
27505;SDS011;14939;43.596;1.320;2024-03-08T10:32:08;4.43;;;1.80;;
27505;SDS011;14939;43.596;1.320;2024-03-08T10:34:34;3.78;;;1.77;;
27505;SDS011;14939;43.596;1.320;2024-03-08T10:37:02;4.18;;;1.60;;
27505;SDS011;14939;43.596;1.320;2024-03-08T10:39:30;2.97;;;1.08;;
27505;SDS011;14939;43.596;1.320;2024-03-08T10:42:02;4.82;;;1.90;;
27505;SDS011;14939;43.596;1.320;2024-03-08T10:47:01;5.70;;;2.15;;
27505;SDS011;14939;43.596;1.320;2024-03-08T10:49:31;3.92;;;1.90;;
27505;SDS011;14939;43.596;1.320;2024-03-08T10:52:02;3.95;;;1.70;;
27505;SDS011;14939;43.596;1.320;2024-03-08T10:54:29;4.72;;;2.13;;
27505;SDS011;14939;43.596;1.320;2024-03-08T10:56:57;4.50;;;2.03;;
27505;SDS011;14939;43.596;1.320;2024-03-08T10:59:23;5.70;;;1.98;;
27505;SDS011;14939;43.596;1.320;2024-03-08T11:01:52;6.18;;;2.47;;
27505;SDS011;14939;43.596;1.320;2024-03-08T11:04:18;5.50;;;2.75;;
27505;SDS011;14939;43.596;1.320;2024-03-08T11:06:48;7.30;;;3.08;;
27505;SDS011;14939;43.596;1.320;2024-03-08T11:09:30;6.97;;;2.60;;
27505;SDS011;14939;43.596;1.320;2024-03-08T11:12:19;5.70;;;2.15;;
27505;SDS011;14939;43.596;1.320;2024-03-08T11:14:54;4.45;;;2.42;;
27505;SDS011;14939;43.596;1.320;2024-03-08T11:19:54;3.05;;;1.58;;
27505;SDS011;14939;43.596;1.320;2024-03-08T11:22:31;4.65;;;1.83;;
27505;SDS011;14939;43.596;1.320;2024-03-08T11:24:58;4.18;;;1.80;;
27505;SDS011;14939;43.596;1.320;2024-03-08T11:27:33;3.15;;;1.60;;
27505;SDS011;14939;43.596;1.320;2024-03-08T11:30:02;3.53;;;1.50;;
27505;SDS011;14939;43.596;1.320;2024-03-08T11:32:36;4.25;;;1.55;;
27505;SDS011;14939;43.596;1.320;2024-03-08T11:35:05;2.13;;;1.48;;
27505;SDS011;14939;43.596;1.320;2024-03-08T11:37:33;3.05;;;2.00;;
27505;SDS011;14939;43.596;1.320;2024-03-08T11:40:00;2.65;;;1.60;;
27505;SDS011;14939;43.596;1.320;2024-03-08T11:42:29;5.30;;;1.63;;
27505;SDS011;14939;43.596;1.320;2024-03-08T11:44:55;5.75;;;1.95;;
27505;SDS011;14939;43.596;1.320;2024-03-08T11:47:21;2.65;;;1.73;;
27505;SDS011;14939;43.596;1.320;2024-03-08T11:49:47;3.17;;;1.35;;
27505;SDS011;14939;43.596;1.320;2024-03-08T11:52:14;2.83;;;1.50;;
27505;SDS011;14939;43.596;1.320;2024-03-08T11:54:41;1.90;;;1.65;;
27505;SDS011;14939;43.596;1.320;2024-03-08T11:57:08;2.40;;;1.40;;
27505;SDS011;14939;43.596;1.320;2024-03-08T11:59:35;2.67;;;1.20;;
27505;SDS011;14939;43.596;1.320;2024-03-08T12:02:02;3.08;;;1.30;;
27505;SDS011;14939;43.596;1.320;2024-03-08T12:04:29;2.40;;;1.38;;
27505;SDS011;14939;43.596;1.320;2024-03-08T12:06:56;2.60;;;1.38;;
27505;SDS011;14939;43.596;1.320;2024-03-08T12:09:25;3.60;;;1.30;;
27505;SDS011;14939;43.596;1.320;2024-03-08T12:11:51;2.92;;;1.42;;
27505;SDS011;14939;43.596;1.320;2024-03-08T12:14:17;3.40;;;1.27;;
27505;SDS011;14939;43.596;1.320;2024-03-08T12:16:43;3.25;;;1.25;;
27505;SDS011;14939;43.596;1.320;2024-03-08T12:19:09;3.25;;;1.23;;
27505;SDS011;14939;43.596;1.320;2024-03-08T12:21:35;2.50;;;1.67;;
27505;SDS011;14939;43.596;1.320;2024-03-08T12:24:08;2.03;;;1.20;;
27505;SDS011;14939;43.596;1.320;2024-03-08T12:26:38;2.20;;;1.10;;
27505;SDS011;14939;43.596;1.320;2024-03-08T12:29:18;1.85;;;1.30;;
27505;SDS011;14939;43.596;1.320;2024-03-08T12:31:56;2.58;;;1.20;;
27505;SDS011;14939;43.596;1.320;2024-03-08T12:34:25;2.67;;;1.40;;
27505;SDS011;14939;43.596;1.320;2024-03-08T12:36:53;3.97;;;1.30;;
27505;SDS011;14939;43.596;1.320;2024-03-08T12:39:20;3.55;;;1.60;;
27505;SDS011;14939;43.596;1.320;2024-03-08T12:41:47;2.67;;;1.70;;
27505;SDS011;14939;43.596;1.320;2024-03-08T12:44:17;3.97;;;1.60;;
27505;SDS011;14939;43.596;1.320;2024-03-08T12:46:44;7.32;;;1.50;;
27505;SDS011;14939;43.596;1.320;2024-03-08T12:49:10;3.80;;;1.15;;
27505;SDS011;14939;43.596;1.320;2024-03-08T12:51:37;2.83;;;1.42;;
27505;SDS011;14939;43.596;1.320;2024-03-08T12:54:04;1.60;;;1.20;;
27505;SDS011;14939;43.596;1.320;2024-03-08T12:56:33;3.05;;;1.30;;
27505;SDS011;14939;43.596;1.320;2024-03-08T12:59:00;3.15;;;1.40;;
27505;SDS011;14939;43.596;1.320;2024-03-08T13:01:26;3.05;;;1.33;;
27505;SDS011;14939;43.596;1.320;2024-03-08T13:03:52;2.25;;;1.20;;
27505;SDS011;14939;43.596;1.320;2024-03-08T13:06:20;3.92;;;1.05;;
27505;SDS011;14939;43.596;1.320;2024-03-08T13:08:53;2.10;;;1.23;;
27505;SDS011;14939;43.596;1.320;2024-03-08T13:11:20;2.97;;;1.40;;
27505;SDS011;14939;43.596;1.320;2024-03-08T13:13:46;1.88;;;1.42;;
27505;SDS011;14939;43.596;1.320;2024-03-08T13:16:12;2.47;;;1.15;;
27505;SDS011;14939;43.596;1.320;2024-03-08T13:18:43;3.80;;;1.25;;
27505;SDS011;14939;43.596;1.320;2024-03-08T13:21:10;2.38;;;1.30;;
27505;SDS011;14939;43.596;1.320;2024-03-08T13:23:37;4.32;;;1.40;;
27505;SDS011;14939;43.596;1.320;2024-03-08T13:26:08;1.77;;;1.05;;
27505;SDS011;14939;43.596;1.320;2024-03-08T13:28:37;2.95;;;1.10;;
27505;SDS011;14939;43.596;1.320;2024-03-08T13:31:05;1.80;;;0.90;;
27505;SDS011;14939;43.596;1.320;2024-03-08T13:33:32;2.75;;;1.10;;
27505;SDS011;14939;43.596;1.320;2024-03-08T13:36:00;2.20;;;0.90;;
27505;SDS011;14939;43.596;1.320;2024-03-08T13:38:31;2.88;;;0.98;;
27505;SDS011;14939;43.596;1.320;2024-03-08T13:41:00;1.80;;;1.00;;
27505;SDS011;14939;43.596;1.320;2024-03-08T13:43:27;1.73;;;1.10;;
27505;SDS011;14939;43.596;1.320;2024-03-08T13:45:53;1.60;;;1.10;;
27505;SDS011;14939;43.596;1.320;2024-03-08T13:48:20;2.65;;;0.93;;
27505;SDS011;14939;43.596;1.320;2024-03-08T13:50:47;2.90;;;0.90;;
27505;SDS011;14939;43.596;1.320;2024-03-08T13:53:14;0.95;;;0.68;;
27505;SDS011;14939;43.596;1.320;2024-03-08T13:55:40;1.55;;;0.80;;
27505;SDS011;14939;43.596;1.320;2024-03-08T13:58:06;2.05;;;0.82;;
27505;SDS011;14939;43.596;1.320;2024-03-08T14:00:34;2.22;;;1.25;;
27505;SDS011;14939;43.596;1.320;2024-03-08T14:03:01;1.20;;;0.80;;
27505;SDS011;14939;43.596;1.320;2024-03-08T14:05:30;1.75;;;0.80;;
27505;SDS011;14939;43.596;1.320;2024-03-08T14:07:59;1.60;;;0.70;;
27505;SDS011;14939;43.596;1.320;2024-03-08T14:10:28;1.73;;;0.70;;
27505;SDS011;14939;43.596;1.320;2024-03-08T14:12:56;2.85;;;0.80;;
27505;SDS011;14939;43.596;1.320;2024-03-08T14:15:22;2.03;;;0.70;;
27505;SDS011;14939;43.596;1.320;2024-03-08T14:17:54;2.17;;;0.73;;
27505;SDS011;14939;43.596;1.320;2024-03-08T14:22:50;1.40;;;0.82;;
27505;SDS011;14939;43.596;1.320;2024-03-08T14:25:16;1.15;;;0.60;;
27505;SDS011;14939;43.596;1.320;2024-03-08T14:27:46;4.10;;;2.42;;
27505;SDS011;14939;43.596;1.320;2024-03-08T14:30:12;5.60;;;2.75;;
27505;SDS011;14939;43.596;1.320;2024-03-08T14:32:38;1.77;;;1.20;;
27505;SDS011;14939;43.596;1.320;2024-03-08T14:35:06;2.00;;;0.60;;
27505;SDS011;14939;43.596;1.320;2024-03-08T14:37:33;1.95;;;0.60;;
27505;SDS011;14939;43.596;1.320;2024-03-08T14:39:59;1.83;;;0.95;;
27505;SDS011;14939;43.596;1.320;2024-03-08T14:42:25;1.50;;;1.23;;
27505;SDS011;14939;43.596;1.320;2024-03-08T14:44:51;0.98;;;0.60;;
27505;SDS011;14939;43.596;1.320;2024-03-08T14:47:19;1.27;;;0.60;;
27505;SDS011;14939;43.596;1.320;2024-03-08T14:49:44;1.45;;;0.80;;
27505;SDS011;14939;43.596;1.320;2024-03-08T14:52:10;1.73;;;0.80;;